sensor_id;sensor_type;location;lat;lon;timestamp;noise_LAeq;noise_LA_min;noise_LA_max;noise_LA01;noise_LA95
71628;Laerm;59477;52.374;9.916;2023-11-19T00:00:26;48.05;38.00;68.17;;
71628;Laerm;59477;52.374;9.916;2023-11-19T00:02:27;46.24;39.06;67.81;;
71628;Laerm;59477;52.374;9.916;2023-11-19T00:04:27;43.77;38.39;60.78;;
71628;Laerm;59477;52.374;9.916;2023-11-19T00:06:27;43.32;38.12;58.71;;
71628;Laerm;59477;52.374;9.916;2023-11-19T00:08:47;45.35;38.70;62.61;;
71628;Laerm;59477;52.374;9.916;2023-11-19T00:11:06;41.75;37.57;54.32;;
71628;Laerm;59477;52.374;9.916;2023-11-19T00:13:25;45.62;38.48;65.11;;
71628;Laerm;59477;52.374;9.916;2023-11-19T00:15:26;42.29;38.27;52.78;;
71628;Laerm;59477;52.374;9.916;2023-11-19T00:17:45;41.54;37.90;49.84;;
71628;Laerm;59477;52.374;9.916;2023-11-19T00:20:05;43.20;38.82;57.70;;
71628;Laerm;59477;52.374;9.916;2023-11-19T00:22:06;44.43;38.57;71.97;;
71628;Laerm;59477;52.374;9.916;2023-11-19T00:24:25;48.85;39.39;74.94;;
71628;Laerm;59477;52.374;9.916;2023-11-19T00:26:44;49.44;41.21;75.31;;
71628;Laerm;59477;52.374;9.916;2023-11-19T00:28:44;44.92;40.57;63.93;;
71628;Laerm;59477;52.374;9.916;2023-11-19T00:30:44;46.25;40.66;65.44;;
71628;Laerm;59477;52.374;9.916;2023-11-19T00:32:44;43.32;39.07;60.86;;
71628;Laerm;59477;52.374;9.916;2023-11-19T00:34:45;51.41;39.25;72.80;;
71628;Laerm;59477;52.374;9.916;2023-11-19T00:36:48;48.10;40.36;69.12;;
71628;Laerm;59477;52.374;9.916;2023-11-19T00:39:07;45.84;40.16;64.32;;
71628;Laerm;59477;52.374;9.916;2023-11-19T00:41:07;44.64;39.55;64.93;;
71628;Laerm;59477;52.374;9.916;2023-11-19T00:43:26;41.80;38.78;57.70;;
71628;Laerm;59477;52.374;9.916;2023-11-19T00:45:27;43.09;38.03;60.62;;
71628;Laerm;59477;52.374;9.916;2023-11-19T00:47:28;46.72;38.83;70.66;;
71628;Laerm;59477;52.374;9.916;2023-11-19T00:49:28;51.86;42.55;76.69;;
71628;Laerm;59477;52.374;9.916;2023-11-19T00:51:28;55.97;45.67;76.02;;
71628;Laerm;59477;52.374;9.916;2023-11-19T00:53:31;56.31;40.10;80.13;;
71628;Laerm;59477;52.374;9.916;2023-11-19T00:55:32;43.86;39.43;59.94;;
71628;Laerm;59477;52.374;9.916;2023-11-19T00:57:32;49.74;40.88;77.24;;
71628;Laerm;59477;52.374;9.916;2023-11-19T00:59:32;51.96;42.83;70.64;;
71628;Laerm;59477;52.374;9.916;2023-11-19T01:01:33;53.88;41.55;77.00;;
71628;Laerm;59477;52.374;9.916;2023-11-19T01:03:33;56.65;40.38;78.98;;
71628;Laerm;59477;52.374;9.916;2023-11-19T01:05:33;43.99;39.71;62.83;;
71628;Laerm;59477;52.374;9.916;2023-11-19T01:07:34;45.40;40.77;65.41;;
71628;Laerm;59477;52.374;9.916;2023-11-19T01:09:34;55.30;41.37;76.85;;
71628;Laerm;59477;52.374;9.916;2023-11-19T01:11:35;45.86;39.64;61.39;;
71628;Laerm;59477;52.374;9.916;2023-11-19T01:13:35;49.82;39.34;70.85;;
71628;Laerm;59477;52.374;9.916;2023-11-19T01:15:36;56.13;39.15;80.68;;
71628;Laerm;59477;52.374;9.916;2023-11-19T01:17:36;43.70;39.85;66.47;;
71628;Laerm;59477;52.374;9.916;2023-11-19T01:19:37;44.20;40.53;61.62;;
71628;Laerm;59477;52.374;9.916;2023-11-19T01:21:37;45.98;39.97;60.79;;
71628;Laerm;59477;52.374;9.916;2023-11-19T01:23:37;46.55;39.51;65.46;;
71628;Laerm;59477;52.374;9.916;2023-11-19T01:25:37;43.65;40.12;61.29;;
71628;Laerm;59477;52.374;9.916;2023-11-19T01:27:38;44.15;39.64;61.72;;
71628;Laerm;59477;52.374;9.916;2023-11-19T01:29:38;42.49;39.62;60.74;;
71628;Laerm;59477;52.374;9.916;2023-11-19T01:31:40;44.84;40.51;54.77;;
71628;Laerm;59477;52.374;9.916;2023-11-19T01:33:40;45.24;39.25;63.04;;
71628;Laerm;59477;52.374;9.916;2023-11-19T01:35:41;43.86;38.73;53.53;;
71628;Laerm;59477;52.374;9.916;2023-11-19T01:37:42;53.97;39.50;75.33;;
71628;Laerm;59477;52.374;9.916;2023-11-19T01:39:45;43.07;39.07;51.22;;
71628;Laerm;59477;52.374;9.916;2023-11-19T01:41:45;44.40;40.42;64.02;;
71628;Laerm;59477;52.374;9.916;2023-11-19T01:43:45;44.24;40.70;59.58;;
71628;Laerm;59477;52.374;9.916;2023-11-19T01:45:47;48.90;40.76;66.82;;
71628;Laerm;59477;52.374;9.916;2023-11-19T01:47:47;46.16;40.13;63.36;;
71628;Laerm;59477;52.374;9.916;2023-11-19T01:49:47;47.11;39.90;68.52;;
71628;Laerm;59477;52.374;9.916;2023-11-19T01:51:48;45.10;39.53;60.55;;
71628;Laerm;59477;52.374;9.916;2023-11-19T01:53:48;43.27;40.05;58.29;;
71628;Laerm;59477;52.374;9.916;2023-11-19T01:55:49;44.26;40.19;63.62;;
71628;Laerm;59477;52.374;9.916;2023-11-19T01:57:50;43.64;40.30;61.22;;
71628;Laerm;59477;52.374;9.916;2023-11-19T01:59:51;43.43;39.69;57.82;;
71628;Laerm;59477;52.374;9.916;2023-11-19T02:01:53;44.89;40.99;62.84;;
71628;Laerm;59477;52.374;9.916;2023-11-19T02:03:54;50.67;41.49;70.54;;
71628;Laerm;59477;52.374;9.916;2023-11-19T02:05:54;45.64;40.96;65.16;;
71628;Laerm;59477;52.374;9.916;2023-11-19T02:07:54;49.47;43.30;71.80;;
71628;Laerm;59477;52.374;9.916;2023-11-19T02:09:54;49.34;41.55;72.46;;
71628;Laerm;59477;52.374;9.916;2023-11-19T02:11:55;51.19;43.00;72.55;;
71628;Laerm;59477;52.374;9.916;2023-11-19T02:13:55;55.58;47.72;76.58;;
71628;Laerm;59477;52.374;9.916;2023-11-19T02:15:57;48.92;42.38;68.33;;
71628;Laerm;59477;52.374;9.916;2023-11-19T02:17:57;44.06;40.11;55.40;;
71628;Laerm;59477;52.374;9.916;2023-11-19T02:19:57;46.92;40.10;65.70;;
71628;Laerm;59477;52.374;9.916;2023-11-19T02:21:58;42.33;38.94;51.69;;
71628;Laerm;59477;52.374;9.916;2023-11-19T02:23:58;43.72;39.62;52.69;;
71628;Laerm;59477;52.374;9.916;2023-11-19T02:28:17;61.22;51.15;84.24;;
71628;Laerm;59477;52.374;9.916;2023-11-19T02:30:18;59.57;48.38;83.46;;
71628;Laerm;59477;52.374;9.916;2023-11-19T02:32:18;54.85;47.67;80.19;;
71628;Laerm;59477;52.374;9.916;2023-11-19T02:34:19;50.39;45.19;67.97;;
71628;Laerm;59477;52.374;9.916;2023-11-19T02:36:19;49.57;43.47;70.64;;
71628;Laerm;59477;52.374;9.916;2023-11-19T02:38:21;49.99;43.00;73.89;;
71628;Laerm;59477;52.374;9.916;2023-11-19T02:40:22;45.60;40.88;62.08;;
71628;Laerm;59477;52.374;9.916;2023-11-19T02:42:22;44.92;39.93;56.99;;
71628;Laerm;59477;52.374;9.916;2023-11-19T02:44:23;44.42;39.94;50.63;;
71628;Laerm;59477;52.374;9.916;2023-11-19T02:46:23;42.93;39.03;51.52;;
71628;Laerm;59477;52.374;9.916;2023-11-19T02:48:23;44.22;39.31;54.67;;
71628;Laerm;59477;52.374;9.916;2023-11-19T02:50:24;47.99;39.29;69.69;;
71628;Laerm;59477;52.374;9.916;2023-11-19T02:52:25;54.75;45.84;78.83;;
71628;Laerm;59477;52.374;9.916;2023-11-19T02:54:25;46.96;40.33;72.28;;
71628;Laerm;59477;52.374;9.916;2023-11-19T02:56:27;44.41;38.85;53.58;;
71628;Laerm;59477;52.374;9.916;2023-11-19T02:58:29;43.58;40.03;58.70;;
71628;Laerm;59477;52.374;9.916;2023-11-19T03:00:29;45.83;39.82;65.29;;
71628;Laerm;59477;52.374;9.916;2023-11-19T03:02:36;46.81;40.86;63.04;;
71628;Laerm;59477;52.374;9.916;2023-11-19T03:04:44;49.00;40.47;64.54;;
71628;Laerm;59477;52.374;9.916;2023-11-19T03:06:46;47.37;40.23;70.14;;
71628;Laerm;59477;52.374;9.916;2023-11-19T03:08:46;56.23;41.32;80.95;;
71628;Laerm;59477;52.374;9.916;2023-11-19T03:10:47;51.83;44.35;73.10;;
71628;Laerm;59477;52.374;9.916;2023-11-19T03:12:47;49.55;40.88;70.47;;
71628;Laerm;59477;52.374;9.916;2023-11-19T03:14:47;45.66;39.30;65.80;;
71628;Laerm;59477;52.374;9.916;2023-11-19T03:16:50;42.36;38.92;59.00;;
71628;Laerm;59477;52.374;9.916;2023-11-19T03:18:51;41.88;39.11;56.13;;
71628;Laerm;59477;52.374;9.916;2023-11-19T03:20:51;42.60;38.66;48.43;;
71628;Laerm;59477;52.374;9.916;2023-11-19T03:22:52;40.49;38.41;50.88;;
71628;Laerm;59477;52.374;9.916;2023-11-19T03:24:53;43.26;38.75;52.64;;
71628;Laerm;59477;52.374;9.916;2023-11-19T03:26:53;43.15;38.97;51.76;;
71628;Laerm;59477;52.374;9.916;2023-11-19T03:28:53;43.26;38.31;53.45;;
71628;Laerm;59477;52.374;9.916;2023-11-19T03:30:54;42.50;38.60;49.91;;
71628;Laerm;59477;52.374;9.916;2023-11-19T03:32:58;43.03;39.00;53.33;;
71628;Laerm;59477;52.374;9.916;2023-11-19T03:34:58;40.88;38.43;51.54;;
71628;Laerm;59477;52.374;9.916;2023-11-19T03:36:59;41.26;38.68;49.30;;
71628;Laerm;59477;52.374;9.916;2023-11-19T03:38:59;42.84;39.32;55.15;;
71628;Laerm;59477;52.374;9.916;2023-11-19T03:41:00;47.28;39.63;75.94;;
71628;Laerm;59477;52.374;9.916;2023-11-19T03:43:00;44.54;39.04;64.15;;
71628;Laerm;59477;52.374;9.916;2023-11-19T03:45:00;42.30;38.80;48.36;;
71628;Laerm;59477;52.374;9.916;2023-11-19T03:47:01;41.36;38.75;50.33;;
71628;Laerm;59477;52.374;9.916;2023-11-19T03:49:01;41.07;38.40;52.20;;
71628;Laerm;59477;52.374;9.916;2023-11-19T03:51:02;43.96;39.17;56.86;;
71628;Laerm;59477;52.374;9.916;2023-11-19T03:53:02;41.51;38.87;51.95;;
71628;Laerm;59477;52.374;9.916;2023-11-19T03:55:03;43.16;39.91;50.44;;
71628;Laerm;59477;52.374;9.916;2023-11-19T03:57:05;43.85;40.31;51.32;;
71628;Laerm;59477;52.374;9.916;2023-11-19T03:59:05;46.15;39.43;64.29;;
71628;Laerm;59477;52.374;9.916;2023-11-19T04:01:06;43.60;38.85;56.63;;
71628;Laerm;59477;52.374;9.916;2023-11-19T04:03:10;43.67;40.22;52.53;;
71628;Laerm;59477;52.374;9.916;2023-11-19T04:05:11;41.67;39.16;53.00;;
71628;Laerm;59477;52.374;9.916;2023-11-19T04:07:11;41.92;38.61;52.50;;
71628;Laerm;59477;52.374;9.916;2023-11-19T04:09:11;41.55;38.64;48.38;;
71628;Laerm;59477;52.374;9.916;2023-11-19T04:11:11;42.39;38.47;54.41;;
71628;Laerm;59477;52.374;9.916;2023-11-19T04:13:11;41.92;38.35;52.47;;
71628;Laerm;59477;52.374;9.916;2023-11-19T04:15:14;47.55;39.93;72.84;;
71628;Laerm;59477;52.374;9.916;2023-11-19T04:17:14;41.87;39.24;49.37;;
71628;Laerm;59477;52.374;9.916;2023-11-19T04:19:14;50.29;39.16;74.67;;
71628;Laerm;59477;52.374;9.916;2023-11-19T04:21:14;41.80;39.22;46.86;;
71628;Laerm;59477;52.374;9.916;2023-11-19T04:23:15;42.89;38.89;50.69;;
71628;Laerm;59477;52.374;9.916;2023-11-19T04:25:15;41.42;38.70;50.86;;
71628;Laerm;59477;52.374;9.916;2023-11-19T04:27:16;42.54;39.33;59.80;;
71628;Laerm;59477;52.374;9.916;2023-11-19T04:29:16;41.56;38.90;46.19;;
71628;Laerm;59477;52.374;9.916;2023-11-19T04:31:17;42.19;38.97;48.54;;
71628;Laerm;59477;52.374;9.916;2023-11-19T04:33:17;41.34;39.10;49.75;;
71628;Laerm;59477;52.374;9.916;2023-11-19T04:35:17;42.85;40.09;46.29;;
71628;Laerm;59477;52.374;9.916;2023-11-19T04:37:19;42.06;39.41;46.10;;
71628;Laerm;59477;52.374;9.916;2023-11-19T04:39:19;41.78;38.94;49.52;;
71628;Laerm;59477;52.374;9.916;2023-11-19T04:41:19;41.85;39.10;45.84;;
71628;Laerm;59477;52.374;9.916;2023-11-19T04:43:19;45.18;40.55;50.68;;
71628;Laerm;59477;52.374;9.916;2023-11-19T04:45:20;41.68;39.54;44.65;;
71628;Laerm;59477;52.374;9.916;2023-11-19T04:47:20;41.98;38.99;46.08;;
71628;Laerm;59477;52.374;9.916;2023-11-19T04:49:20;42.03;39.48;46.62;;
71628;Laerm;59477;52.374;9.916;2023-11-19T04:51:21;42.64;39.71;48.42;;
71628;Laerm;59477;52.374;9.916;2023-11-19T04:53:21;42.57;39.79;49.10;;
71628;Laerm;59477;52.374;9.916;2023-11-19T04:55:21;41.64;39.39;44.25;;
71628;Laerm;59477;52.374;9.916;2023-11-19T04:57:22;41.67;39.41;44.88;;
71628;Laerm;59477;52.374;9.916;2023-11-19T04:59:22;59.07;39.73;80.97;;
71628;Laerm;59477;52.374;9.916;2023-11-19T05:01:23;47.02;39.28;71.42;;
71628;Laerm;59477;52.374;9.916;2023-11-19T05:03:23;42.68;39.75;50.38;;
71628;Laerm;59477;52.374;9.916;2023-11-19T05:05:23;44.31;41.29;50.85;;
71628;Laerm;59477;52.374;9.916;2023-11-19T05:07:23;42.80;40.38;47.17;;
71628;Laerm;59477;52.374;9.916;2023-11-19T05:09:24;42.19;39.84;47.69;;
71628;Laerm;59477;52.374;9.916;2023-11-19T05:11:24;42.16;39.45;48.25;;
71628;Laerm;59477;52.374;9.916;2023-11-19T05:13:24;43.88;40.25;50.33;;
71628;Laerm;59477;52.374;9.916;2023-11-19T05:15:24;42.32;40.14;49.12;;
71628;Laerm;59477;52.374;9.916;2023-11-19T05:17:25;41.74;39.49;46.49;;
71628;Laerm;59477;52.374;9.916;2023-11-19T05:19:25;43.09;40.33;50.64;;
71628;Laerm;59477;52.374;9.916;2023-11-19T05:21:25;43.92;39.90;51.32;;
71628;Laerm;59477;52.374;9.916;2023-11-19T05:23:26;42.23;39.34;49.05;;
71628;Laerm;59477;52.374;9.916;2023-11-19T05:25:26;42.62;38.99;48.57;;
71628;Laerm;59477;52.374;9.916;2023-11-19T05:27:27;44.27;39.82;51.25;;
71628;Laerm;59477;52.374;9.916;2023-11-19T05:29:27;41.54;39.08;49.06;;
71628;Laerm;59477;52.374;9.916;2023-11-19T05:31:27;41.48;38.74;56.10;;
71628;Laerm;59477;52.374;9.916;2023-11-19T05:33:28;42.23;39.42;50.05;;
71628;Laerm;59477;52.374;9.916;2023-11-19T05:35:28;42.76;40.02;50.17;;
71628;Laerm;59477;52.374;9.916;2023-11-19T05:37:28;43.03;40.14;53.47;;
71628;Laerm;59477;52.374;9.916;2023-11-19T05:39:31;42.30;39.78;53.70;;
71628;Laerm;59477;52.374;9.916;2023-11-19T05:41:31;42.25;39.78;47.29;;
71628;Laerm;59477;52.374;9.916;2023-11-19T05:43:32;42.66;40.16;46.03;;
71628;Laerm;59477;52.374;9.916;2023-11-19T05:45:32;42.47;40.14;50.53;;
71628;Laerm;59477;52.374;9.916;2023-11-19T05:47:33;42.08;40.09;44.71;;
71628;Laerm;59477;52.374;9.916;2023-11-19T05:49:33;41.73;39.36;51.85;;
71628;Laerm;59477;52.374;9.916;2023-11-19T05:51:36;41.94;39.53;45.33;;
71628;Laerm;59477;52.374;9.916;2023-11-19T05:53:36;42.27;40.20;44.87;;
71628;Laerm;59477;52.374;9.916;2023-11-19T05:55:37;44.00;40.17;61.64;;
71628;Laerm;59477;52.374;9.916;2023-11-19T05:57:45;45.07;41.30;61.60;;
71628;Laerm;59477;52.374;9.916;2023-11-19T05:59:45;52.34;40.46;79.27;;
71628;Laerm;59477;52.374;9.916;2023-11-19T06:01:45;43.78;40.02;51.64;;
71628;Laerm;59477;52.374;9.916;2023-11-19T06:03:46;42.36;39.55;53.82;;
71628;Laerm;59477;52.374;9.916;2023-11-19T06:05:50;42.35;39.90;51.98;;
71628;Laerm;59477;52.374;9.916;2023-11-19T06:07:50;42.24;39.80;48.17;;
71628;Laerm;59477;52.374;9.916;2023-11-19T06:09:51;43.61;40.03;51.59;;
71628;Laerm;59477;52.374;9.916;2023-11-19T06:11:52;43.37;40.28;52.44;;
71628;Laerm;59477;52.374;9.916;2023-11-19T06:13:52;43.25;40.08;51.42;;
71628;Laerm;59477;52.374;9.916;2023-11-19T06:15:53;42.70;40.19;55.45;;
71628;Laerm;59477;52.374;9.916;2023-11-19T06:17:53;43.19;40.55;48.20;;
71628;Laerm;59477;52.374;9.916;2023-11-19T06:19:53;44.19;41.27;54.65;;
71628;Laerm;59477;52.374;9.916;2023-11-19T06:21:53;44.23;40.48;54.95;;
71628;Laerm;59477;52.374;9.916;2023-11-19T06:23:54;46.05;41.32;57.23;;
71628;Laerm;59477;52.374;9.916;2023-11-19T06:25:54;48.39;41.59;59.96;;
71628;Laerm;59477;52.374;9.916;2023-11-19T06:27:54;48.54;43.63;58.80;;
71628;Laerm;59477;52.374;9.916;2023-11-19T06:29:55;47.11;42.05;65.79;;
71628;Laerm;59477;52.374;9.916;2023-11-19T06:31:55;48.05;42.86;57.91;;
71628;Laerm;59477;52.374;9.916;2023-11-19T06:33:55;46.26;42.08;58.07;;
71628;Laerm;59477;52.374;9.916;2023-11-19T06:35:56;46.68;42.03;61.79;;
71628;Laerm;59477;52.374;9.916;2023-11-19T06:37:56;47.77;43.57;54.47;;
71628;Laerm;59477;52.374;9.916;2023-11-19T06:39:56;46.71;42.91;53.14;;
71628;Laerm;59477;52.374;9.916;2023-11-19T06:41:56;48.76;43.69;61.17;;
71628;Laerm;59477;52.374;9.916;2023-11-19T06:43:57;47.06;42.61;55.77;;
71628;Laerm;59477;52.374;9.916;2023-11-19T06:45:57;46.99;42.55;54.52;;
71628;Laerm;59477;52.374;9.916;2023-11-19T06:47:57;50.50;42.59;75.02;;
71628;Laerm;59477;52.374;9.916;2023-11-19T06:49:58;46.56;42.18;56.44;;
71628;Laerm;59477;52.374;9.916;2023-11-19T06:51:59;46.72;42.21;54.22;;
71628;Laerm;59477;52.374;9.916;2023-11-19T06:53:59;47.08;42.14;51.89;;
71628;Laerm;59477;52.374;9.916;2023-11-19T06:55:59;46.76;42.49;59.86;;
71628;Laerm;59477;52.374;9.916;2023-11-19T06:58:00;46.73;42.46;53.77;;
71628;Laerm;59477;52.374;9.916;2023-11-19T07:00:02;45.96;41.65;51.68;;
71628;Laerm;59477;52.374;9.916;2023-11-19T07:02:03;46.36;41.83;61.93;;
71628;Laerm;59477;52.374;9.916;2023-11-19T07:04:03;51.54;42.91;74.49;;
71628;Laerm;59477;52.374;9.916;2023-11-19T07:06:09;46.47;40.83;57.30;;
71628;Laerm;59477;52.374;9.916;2023-11-19T07:08:10;47.80;42.50;64.97;;
71628;Laerm;59477;52.374;9.916;2023-11-19T07:10:11;55.10;42.42;80.73;;
71628;Laerm;59477;52.374;9.916;2023-11-19T07:12:30;48.07;41.12;68.51;;
71628;Laerm;59477;52.374;9.916;2023-11-19T07:14:31;50.48;44.61;64.80;;
71628;Laerm;59477;52.374;9.916;2023-11-19T07:16:50;47.70;42.79;63.26;;
71628;Laerm;59477;52.374;9.916;2023-11-19T07:18:50;48.85;42.78;63.30;;
71628;Laerm;59477;52.374;9.916;2023-11-19T07:20:51;51.52;43.83;65.08;;
71628;Laerm;59477;52.374;9.916;2023-11-19T07:22:51;57.70;46.82;79.61;;
71628;Laerm;59477;52.374;9.916;2023-11-19T07:24:51;50.98;44.56;64.53;;
71628;Laerm;59477;52.374;9.916;2023-11-19T07:26:53;49.24;44.40;56.89;;
71628;Laerm;59477;52.374;9.916;2023-11-19T07:28:54;47.31;43.16;52.09;;
71628;Laerm;59477;52.374;9.916;2023-11-19T07:30:55;47.33;43.16;53.72;;
71628;Laerm;59477;52.374;9.916;2023-11-19T07:32:56;47.47;41.77;63.06;;
71628;Laerm;59477;52.374;9.916;2023-11-19T07:34:56;46.93;42.47;54.86;;
71628;Laerm;59477;52.374;9.916;2023-11-19T07:36:57;49.04;43.03;60.16;;
71628;Laerm;59477;52.374;9.916;2023-11-19T07:38:59;49.78;44.96;56.46;;
71628;Laerm;59477;52.374;9.916;2023-11-19T07:40:59;48.83;42.84;57.73;;
71628;Laerm;59477;52.374;9.916;2023-11-19T07:43:18;48.87;43.59;57.96;;
71628;Laerm;59477;52.374;9.916;2023-11-19T07:45:37;47.96;44.28;53.29;;
71628;Laerm;59477;52.374;9.916;2023-11-19T07:47:38;47.57;43.30;53.08;;
71628;Laerm;59477;52.374;9.916;2023-11-19T07:49:57;47.16;42.86;53.88;;
71628;Laerm;59477;52.374;9.916;2023-11-19T07:51:59;48.31;44.07;53.23;;
71628;Laerm;59477;52.374;9.916;2023-11-19T07:54:18;52.40;43.24;61.42;;
71628;Laerm;59477;52.374;9.916;2023-11-19T07:56:18;50.17;45.27;56.34;;
71628;Laerm;59477;52.374;9.916;2023-11-19T07:58:18;51.31;43.53;67.67;;
71628;Laerm;59477;52.374;9.916;2023-11-19T08:00:18;50.21;45.10;58.41;;
71628;Laerm;59477;52.374;9.916;2023-11-19T08:02:19;49.36;44.60;55.98;;
71628;Laerm;59477;52.374;9.916;2023-11-19T08:04:20;50.23;44.07;56.74;;
71628;Laerm;59477;52.374;9.916;2023-11-19T08:06:20;51.30;45.50;57.93;;
71628;Laerm;59477;52.374;9.916;2023-11-19T08:08:21;53.70;45.57;67.19;;
71628;Laerm;59477;52.374;9.916;2023-11-19T08:10:21;51.11;45.09;66.37;;
71628;Laerm;59477;52.374;9.916;2023-11-19T08:12:22;52.89;45.18;64.59;;
71628;Laerm;59477;52.374;9.916;2023-11-19T08:14:22;48.34;43.97;53.55;;
71628;Laerm;59477;52.374;9.916;2023-11-19T08:16:24;50.04;45.03;57.74;;
71628;Laerm;59477;52.374;9.916;2023-11-19T08:18:24;51.09;44.42;59.65;;
71628;Laerm;59477;52.374;9.916;2023-11-19T08:20:24;52.22;45.50;61.64;;
71628;Laerm;59477;52.374;9.916;2023-11-19T08:22:25;48.88;42.81;55.75;;
71628;Laerm;59477;52.374;9.916;2023-11-19T08:24:25;51.38;44.25;62.54;;
71628;Laerm;59477;52.374;9.916;2023-11-19T08:26:44;51.68;45.51;63.65;;
71628;Laerm;59477;52.374;9.916;2023-11-19T08:29:03;49.82;44.93;60.15;;
71628;Laerm;59477;52.374;9.916;2023-11-19T08:31:04;51.46;43.84;59.99;;
71628;Laerm;59477;52.374;9.916;2023-11-19T08:33:04;50.36;43.36;58.80;;
71628;Laerm;59477;52.374;9.916;2023-11-19T08:35:06;51.17;46.55;57.50;;
71628;Laerm;59477;52.374;9.916;2023-11-19T08:37:06;52.28;44.68;63.81;;
71628;Laerm;59477;52.374;9.916;2023-11-19T08:39:06;50.15;45.28;56.40;;
71628;Laerm;59477;52.374;9.916;2023-11-19T08:41:08;49.93;45.14;58.59;;
71628;Laerm;59477;52.374;9.916;2023-11-19T08:43:08;60.53;45.68;77.06;;
71628;Laerm;59477;52.374;9.916;2023-11-19T08:45:09;54.60;47.01;66.80;;
71628;Laerm;59477;52.374;9.916;2023-11-19T08:47:11;53.17;45.57;70.29;;
71628;Laerm;59477;52.374;9.916;2023-11-19T08:49:11;50.52;45.72;60.48;;
71628;Laerm;59477;52.374;9.916;2023-11-19T08:51:12;50.95;44.74;61.76;;
71628;Laerm;59477;52.374;9.916;2023-11-19T08:53:12;48.83;44.15;53.26;;
71628;Laerm;59477;52.374;9.916;2023-11-19T08:55:12;49.90;43.58;56.68;;
71628;Laerm;59477;52.374;9.916;2023-11-19T08:57:13;48.50;43.53;59.61;;
71628;Laerm;59477;52.374;9.916;2023-11-19T08:59:13;50.53;45.79;58.27;;
71628;Laerm;59477;52.374;9.916;2023-11-19T09:01:15;50.81;44.76;57.75;;
71628;Laerm;59477;52.374;9.916;2023-11-19T09:03:15;50.70;44.94;57.44;;
71628;Laerm;59477;52.374;9.916;2023-11-19T09:05:15;50.75;45.41;58.53;;
71628;Laerm;59477;52.374;9.916;2023-11-19T09:07:16;52.34;46.07;60.95;;
71628;Laerm;59477;52.374;9.916;2023-11-19T09:09:16;50.19;45.30;59.39;;
71628;Laerm;59477;52.374;9.916;2023-11-19T09:11:16;52.15;45.44;61.38;;
71628;Laerm;59477;52.374;9.916;2023-11-19T09:13:17;49.41;44.32;56.84;;
71628;Laerm;59477;52.374;9.916;2023-11-19T09:15:17;51.14;46.38;64.88;;
71628;Laerm;59477;52.374;9.916;2023-11-19T09:17:17;54.67;47.00;73.32;;
71628;Laerm;59477;52.374;9.916;2023-11-19T09:19:18;53.83;46.03;79.50;;
71628;Laerm;59477;52.374;9.916;2023-11-19T09:21:18;51.48;45.74;60.34;;
71628;Laerm;59477;52.374;9.916;2023-11-19T09:23:19;54.27;46.33;66.84;;
71628;Laerm;59477;52.374;9.916;2023-11-19T09:25:19;51.09;45.42;60.13;;
71628;Laerm;59477;52.374;9.916;2023-11-19T09:27:19;50.04;44.73;59.82;;
71628;Laerm;59477;52.374;9.916;2023-11-19T09:29:20;50.60;45.74;57.21;;
71628;Laerm;59477;52.374;9.916;2023-11-19T09:31:21;49.88;44.26;58.28;;
71628;Laerm;59477;52.374;9.916;2023-11-19T09:33:21;51.68;45.59;72.62;;
71628;Laerm;59477;52.374;9.916;2023-11-19T09:35:22;54.98;45.96;68.98;;
71628;Laerm;59477;52.374;9.916;2023-11-19T09:37:22;53.12;45.77;62.09;;
71628;Laerm;59477;52.374;9.916;2023-11-19T09:39:22;58.79;47.02;71.67;;
71628;Laerm;59477;52.374;9.916;2023-11-19T09:41:23;52.54;46.04;61.04;;
71628;Laerm;59477;52.374;9.916;2023-11-19T09:43:23;51.64;45.89;59.25;;
71628;Laerm;59477;52.374;9.916;2023-11-19T09:45:24;52.68;45.88;60.44;;
71628;Laerm;59477;52.374;9.916;2023-11-19T09:47:26;56.17;46.89;68.55;;
71628;Laerm;59477;52.374;9.916;2023-11-19T09:49:27;52.99;46.95;68.95;;
71628;Laerm;59477;52.374;9.916;2023-11-19T09:51:30;53.32;46.96;64.21;;
71628;Laerm;59477;52.374;9.916;2023-11-19T09:53:30;51.39;45.61;58.23;;
71628;Laerm;59477;52.374;9.916;2023-11-19T09:55:31;50.05;46.09;61.53;;
71628;Laerm;59477;52.374;9.916;2023-11-19T09:57:32;49.79;45.00;60.51;;
71628;Laerm;59477;52.374;9.916;2023-11-19T09:59:33;49.92;43.15;56.95;;
71628;Laerm;59477;52.374;9.916;2023-11-19T10:01:33;57.35;45.30;73.37;;
71628;Laerm;59477;52.374;9.916;2023-11-19T10:03:34;50.94;45.53;58.19;;
71628;Laerm;59477;52.374;9.916;2023-11-19T10:05:37;51.29;45.74;64.61;;
71628;Laerm;59477;52.374;9.916;2023-11-19T10:07:41;52.76;46.82;60.24;;
71628;Laerm;59477;52.374;9.916;2023-11-19T10:09:41;51.12;45.53;60.72;;
71628;Laerm;59477;52.374;9.916;2023-11-19T10:11:42;52.30;43.88;64.05;;
71628;Laerm;59477;52.374;9.916;2023-11-19T10:13:42;51.77;45.61;57.95;;
71628;Laerm;59477;52.374;9.916;2023-11-19T10:15:42;54.09;47.68;73.38;;
71628;Laerm;59477;52.374;9.916;2023-11-19T10:17:43;54.95;49.19;67.16;;
71628;Laerm;59477;52.374;9.916;2023-11-19T10:19:43;52.60;47.26;64.55;;
71628;Laerm;59477;52.374;9.916;2023-11-19T10:21:44;56.08;47.00;64.45;;
71628;Laerm;59477;52.374;9.916;2023-11-19T10:23:49;56.26;48.07;68.15;;
71628;Laerm;59477;52.374;9.916;2023-11-19T10:25:52;55.98;46.58;71.77;;
71628;Laerm;59477;52.374;9.916;2023-11-19T10:27:53;52.30;45.70;61.09;;
71628;Laerm;59477;52.374;9.916;2023-11-19T10:29:53;52.15;46.00;62.61;;
71628;Laerm;59477;52.374;9.916;2023-11-19T10:31:57;53.85;48.50;62.65;;
71628;Laerm;59477;52.374;9.916;2023-11-19T10:33:57;52.22;47.27;58.43;;
71628;Laerm;59477;52.374;9.916;2023-11-19T10:35:57;51.09;45.60;57.06;;
71628;Laerm;59477;52.374;9.916;2023-11-19T10:37:59;55.91;48.73;70.86;;
71628;Laerm;59477;52.374;9.916;2023-11-19T10:39:59;53.39;47.74;67.87;;
71628;Laerm;59477;52.374;9.916;2023-11-19T10:42:07;59.56;48.13;77.88;;
71628;Laerm;59477;52.374;9.916;2023-11-19T10:44:33;55.31;49.11;63.26;;
71628;Laerm;59477;52.374;9.916;2023-11-19T10:46:39;55.16;47.86;68.42;;
71628;Laerm;59477;52.374;9.916;2023-11-19T10:48:40;56.51;48.90;73.50;;
71628;Laerm;59477;52.374;9.916;2023-11-19T10:50:41;55.89;48.05;66.60;;
71628;Laerm;59477;52.374;9.916;2023-11-19T10:52:41;53.94;47.77;60.55;;
71628;Laerm;59477;52.374;9.916;2023-11-19T10:54:43;52.18;46.77;58.37;;
71628;Laerm;59477;52.374;9.916;2023-11-19T10:56:44;52.97;47.66;59.15;;
71628;Laerm;59477;52.374;9.916;2023-11-19T10:58:45;55.56;46.86;65.44;;
71628;Laerm;59477;52.374;9.916;2023-11-19T11:00:52;57.66;49.79;68.06;;
71628;Laerm;59477;52.374;9.916;2023-11-19T11:02:55;52.99;47.62;59.52;;
71628;Laerm;59477;52.374;9.916;2023-11-19T11:04:56;61.72;48.68;87.25;;
71628;Laerm;59477;52.374;9.916;2023-11-19T11:06:57;53.74;47.97;59.97;;
71628;Laerm;59477;52.374;9.916;2023-11-19T11:08:58;52.23;46.74;58.12;;
71628;Laerm;59477;52.374;9.916;2023-11-19T11:10:59;54.88;47.92;66.18;;
71628;Laerm;59477;52.374;9.916;2023-11-19T11:13:02;50.85;44.83;58.97;;
71628;Laerm;59477;52.374;9.916;2023-11-19T11:15:03;50.20;45.84;65.76;;
71628;Laerm;59477;52.374;9.916;2023-11-19T11:17:04;49.92;44.19;59.65;;
71628;Laerm;59477;52.374;9.916;2023-11-19T11:19:07;51.79;45.13;59.35;;
71628;Laerm;59477;52.374;9.916;2023-11-19T11:21:09;52.19;46.43;68.20;;
71628;Laerm;59477;52.374;9.916;2023-11-19T11:32:21;54.97;47.69;78.90;;